Time;durP1;ratioP1;P1;durP2;ratioP2;P2;SDS_P1;SDS_P2;PMS_P1;PMS_P2;Temp;Humidity;BMP_temperature;BMP_pressure;BME280_temperature;BME280_humidity;BME280_pressure;Samples;Min_cycle;Max_cycle;Signal;HPM_P1;HPM_P2
2023/01/15 00:01:28;;;;;;;16.20;9.60;;;;;;;4.81;80.44;99834.83;107629;1252;88963;-56
2023/01/15 00:04:10;;;;;;;16.10;9.00;;;;;;;4.86;80.48;99828.20;107602;1255;95561;-53
2023/01/15 00:06:47;;;;;;;17.30;8.90;;;;;;;4.89;80.44;99822.48;107632;1252;79532;-51
2023/01/15 00:09:23;;;;;;;13.80;9.40;;;;;;;4.87;80.46;99818.61;107590;1252;83182;-51
2023/01/15 00:12:01;;;;;;;19.70;11.10;;;;;;;4.86;80.40;99811.18;107635;1252;98700;-54
2023/01/15 00:14:44;;;;;;;16.20;9.60;;;;;;;4.83;80.11;99801.58;107630;1251;87697;-53
2023/01/15 00:17:26;;;;;;;16.80;8.40;;;;;;;4.82;80.21;99795.39;107590;1251;95643;-54
2023/01/15 00:20:05;;;;;;;16.80;9.50;;;;;;;4.82;80.22;99795.77;107608;1253;81442;-51
2023/01/15 00:22:39;;;;;;;16.20;8.80;;;;;;;4.85;79.94;99792.24;107637;1252;83101;-51
2023/01/15 00:28:13;;;;;;;15.70;8.90;;;;;;;4.89;79.86;99784.31;107591;1251;89303;-52
2023/01/15 00:30:50;;;;;;;15.40;8.30;;;;;;;4.87;79.65;99774.89;107605;1253;95535;-54
2023/01/15 00:33:28;;;;;;;15.30;9.00;;;;;;;4.85;79.58;99772.64;107601;1253;79758;-54
2023/01/15 00:36:17;;;;;;;17.30;9.90;;;;;;;4.84;79.36;99769.89;107620;1252;82915;-55
2023/01/15 00:38:56;;;;;;;17.90;9.10;;;;;;;4.83;79.14;99758.56;107592;1252;98694;-54
2023/01/15 00:41:37;;;;;;;15.60;9.00;;;;;;;4.85;78.98;99758.36;107642;1252;89039;-51
2023/01/15 00:44:18;;;;;;;15.70;9.50;;;;;;;4.87;78.92;99759.33;107657;1255;95558;-51
2023/01/15 00:47:01;;;;;;;15.00;8.90;;;;;;;4.90;78.80;99751.44;107636;1252;77776;-50
2023/01/15 00:49:42;;;;;;;18.90;10.30;;;;;;;4.88;78.82;99751.10;107691;1252;79436;-53
2023/01/15 00:52:18;;;;;;;15.80;9.40;;;;;;;4.84;78.89;99746.62;107643;1253;97845;-54
2023/01/15 00:54:59;;;;;;;17.20;9.00;;;;;;;4.80;79.03;99746.29;107604;1253;88429;-52
2023/01/15 00:57:45;;;;;;;16.90;10.10;;;;;;;4.74;78.97;99736.73;107546;1252;94223;-52
2023/01/15 01:00:21;;;;;;;16.80;10.30;;;;;;;4.72;78.95;99732.48;107589;1252;78776;-54
2023/01/15 01:03:03;;;;;;;15.10;9.50;;;;;;;4.73;79.06;99727.16;107627;1253;81864;-54
2023/01/15 01:05:43;;;;;;;18.40;10.00;;;;;;;4.72;79.11;99724.92;107614;1253;98885;-51
2023/01/15 01:08:20;;;;;;;16.10;9.60;;;;;;;4.71;78.96;99720.78;107597;1253;89074;-53
2023/01/15 01:11:08;;;;;;;15.80;8.80;;;;;;;4.68;78.97;99710.81;107604;1251;93732;-50
2023/01/15 01:13:51;;;;;;;14.60;9.30;;;;;;;4.65;78.83;99711.16;107616;1253;80265;-52
2023/01/15 01:19:27;;;;;;;17.20;10.00;;;;;;;4.65;79.11;99727.34;107594;1252;97229;-51
2023/01/15 01:22:07;;;;;;;16.00;9.20;;;;;;;4.64;78.99;99720.30;107587;1253;89387;-52
2023/01/15 01:24:44;;;;;;;13.60;8.70;;;;;;;4.62;78.87;99717.07;107616;1255;94422;-51
2023/01/15 01:27:22;;;;;;;15.30;8.70;;;;;;;4.58;78.77;99720.65;107696;1252;80424;-52
2023/01/15 01:30:06;;;;;;;16.20;8.20;;;;;;;4.57;78.54;99716.63;107686;1252;81880;-54
2023/01/15 01:32:49;;;;;;;13.80;8.40;;;;;;;4.58;79.03;99715.64;107638;1253;99249;-54
2023/01/15 01:35:28;;;;;;;;;;;;;;;4.57;78.95;99710.39;107667;1252;87923;-53
2023/01/15 01:38:10;;;;;;;13.10;7.60;;;;;;;4.59;79.12;99705.80;107631;1255;94236;-51
2023/01/15 01:40:53;;;;;;;;;;;;;;;4.57;78.76;99699.32;107642;1253;79241;-55
2023/01/15 01:43:31;;;;;;;12.20;8.30;;;;;;;4.54;79.06;99685.65;107631;1255;81508;-55
2023/01/15 01:46:11;;;;;;;14.50;8.20;;;;;;;4.48;78.89;99681.70;107630;1253;97253;-55
2023/01/15 01:48:56;;;;;;;15.10;7.90;;;;;;;4.42;79.04;99674.09;107591;1255;87598;-55
2023/01/15 01:51:43;;;;;;;12.20;7.60;;;;;;;4.38;79.12;99667.27;107577;1255;95204;-52
2023/01/15 01:54:31;;;;;;;14.00;8.20;;;;;;;4.38;78.99;99650.16;107574;1253;79931;-52
2023/01/15 01:57:13;;;;;;;13.90;8.60;;;;;;;4.37;79.07;99634.23;107608;1253;82500;-51
2023/01/15 01:59:53;;;;;;;14.70;8.70;;;;;;;4.36;79.06;99633.32;107585;1253;98687;-52
2023/01/15 02:02:33;;;;;;;12.00;7.60;;;;;;;4.32;78.85;99628.38;107636;1255;88575;-52
2023/01/15 02:05:14;;;;;;;11.30;7.30;;;;;;;4.26;79.09;99620.16;107597;1252;96061;-53
2023/01/15 02:08:03;;;;;;;13.30;7.40;;;;;;;4.17;79.08;99626.45;107583;1253;80735;-54
2023/01/15 02:10:49;;;;;;;11.20;7.00;;;;;;;4.11;79.22;99621.54;107593;1252;82389;-54
2023/01/15 02:13:37;;;;;;;12.40;7.20;;;;;;;4.09;79.28;99627.64;107598;1253;98706;-54
2023/01/15 02:16:24;;;;;;;11.70;7.40;;;;;;;4.08;79.23;99635.30;107558;1253;87278;-55
2023/01/15 02:19:21;;;;;;;11.30;7.10;;;;;;;4.09;79.51;99631.75;107567;1253;94654;-54
2023/01/15 02:22:17;;;;;;;12.00;7.40;;;;;;;4.12;79.33;99642.30;107509;1253;80061;-51
2023/01/15 02:25:08;;;;;;;12.70;8.10;;;;;;;4.14;79.63;99623.21;107544;1253;82633;-53
2023/01/15 02:27:53;;;;;;;10.40;6.80;;;;;;;4.17;79.42;99637.42;107523;1253;96865;-55
2023/01/15 02:30:43;;;;;;;12.10;7.20;;;;;;;4.19;79.61;99636.93;107534;1252;87332;-54
2023/01/15 02:33:33;;;;;;;13.50;7.50;;;;;;;4.21;79.47;99626.41;107468;1257;95096;-53
2023/01/15 02:36:13;;;;;;;13.10;7.50;;;;;;;4.23;79.53;99629.18;107490;1255;79321;-51
2023/01/15 02:39:01;;;;;;;12.30;7.40;;;;;;;4.29;79.35;99634.80;107531;1256;81474;-51
2023/01/15 02:41:47;;;;;;;13.20;7.00;;;;;;;4.31;79.09;99619.89;107502;1252;98846;-51
2023/01/15 02:44:37;;;;;;;9.40;6.10;;;;;;;4.30;79.07;99608.42;107463;1253;88523;-52
2023/01/15 02:47:22;;;;;;;10.50;6.40;;;;;;;4.31;79.14;99617.33;107463;1253;93338;-51
2023/01/15 02:50:04;;;;;;;12.20;6.50;;;;;;;4.31;78.85;99604.10;107492;1256;80590;-55
2023/01/15 02:52:52;;;;;;;9.80;6.50;;;;;;;4.32;78.79;99592.19;107387;1258;81711;-55
2023/01/15 02:55:37;;;;;;;14.20;7.70;;;;;;;4.34;78.80;99564.38;107536;1257;97215;-52
2023/01/15 02:58:27;;;;;;;10.70;6.10;;;;;;;4.32;78.74;99548.70;107598;1253;89119;-52
2023/01/15 03:01:12;;;;;;;9.80;6.70;;;;;;;4.28;78.50;99553.63;107509;1256;94203;-52
2023/01/15 03:04:02;;;;;;;10.50;6.30;;;;;;;4.23;78.48;99560.58;107542;1253;81048;-52
2023/01/15 03:06:46;;;;;;;10.70;6.40;;;;;;;4.21;78.10;99552.67;107564;1255;82589;-51
2023/01/15 03:09:24;;;;;;;10.80;6.90;;;;;;;4.20;78.32;99538.86;107558;1254;98036;-52
2023/01/15 03:12:13;;;;;;;10.80;6.30;;;;;;;4.21;78.19;99533.21;107545;1253;89507;-54
2023/01/15 03:15:03;;;;;;;13.10;7.30;;;;;;;4.22;78.20;99532.52;107540;1257;95436;-55
2023/01/15 03:17:51;;;;;;;10.50;6.40;;;;;;;4.24;78.09;99526.13;107538;1254;77668;-54
2023/01/15 03:20:38;;;;;;;11.10;6.50;;;;;;;4.21;78.14;99525.86;107498;1257;83196;-53
2023/01/15 03:23:26;;;;;;;10.00;5.90;;;;;;;4.23;78.30;99552.73;107533;1253;98743;-53
2023/01/15 03:26:06;;;;;;;12.70;7.00;;;;;;;4.26;78.28;99543.71;107521;1256;87727;-52
2023/01/15 03:28:50;;;;;;;11.80;7.00;;;;;;;4.31;77.83;99552.42;107506;1257;95050;-53
2023/01/15 03:31:32;;;;;;;11.50;7.00;;;;;;;4.36;77.75;99531.32;107503;1257;80031;-54
2023/01/15 03:34:10;;;;;;;11.80;7.00;;;;;;;4.37;77.71;99524.44;107505;1256;80703;-54
2023/01/15 03:36:54;;;;;;;12.20;6.70;;;;;;;4.35;77.62;99506.95;107532;1254;98997;-51
2023/01/15 03:39:33;;;;;;;10.20;7.00;;;;;;;4.32;77.79;99511.77;107582;1254;89273;-53
2023/01/15 03:42:41;;;;;;;10.50;6.70;;;;;;;4.29;77.89;99491.70;107514;1256;93784;-52
2023/01/15 03:45:26;;;;;;;13.10;6.40;;;;;;;4.28;77.73;99511.23;107513;1254;81208;-53
2023/01/15 03:48:17;;;;;;;11.90;6.50;;;;;;;4.29;77.74;99500.02;107502;1255;80807;-54
2023/01/15 03:51:09;;;;;;;11.10;6.80;;;;;;;4.31;77.89;99504.41;107522;1254;99092;-54
2023/01/15 03:53:54;;;;;;;11.30;6.50;;;;;;;4.35;77.44;99503.98;107550;1257;88393;-53
2023/01/15 03:56:49;;;;;;;11.30;6.60;;;;;;;4.38;77.21;99498.29;107598;1257;94127;-53
2023/01/15 03:59:37;;;;;;;10.40;6.80;;;;;;;4.37;77.17;99476.34;107539;1253;81289;-54
2023/01/15 04:02:12;;;;;;;;;;;;;;;4.35;77.24;99467.61;107531;1254;81822;-52
2023/01/15 04:04:54;;;;;;;12.40;6.60;;;;;;;4.33;77.07;99477.82;107509;1254;98996;-53
2023/01/15 04:07:35;;;;;;;10.70;6.50;;;;;;;4.34;77.37;99479.35;107507;1254;89002;-54
2023/01/15 04:10:13;;;;;;;11.40;6.50;;;;;;;4.35;77.36;99463.88;107534;1253;94992;-50
2023/01/15 04:12:59;;;;;;;11.00;6.50;;;;;;;4.35;77.10;99465.67;107524;1254;80178;-51
2023/01/15 04:15:44;;;;;;;11.80;7.50;;;;;;;4.35;77.22;99459.94;107518;1254;81547;-51
2023/01/15 04:18:23;;;;;;;11.80;7.00;;;;;;;4.34;77.37;99445.61;107518;1258;98953;-52
2023/01/15 04:21:03;;;;;;;12.70;7.00;;;;;;;4.31;77.40;99439.44;107500;1254;89345;-51
2023/01/15 04:23:48;;;;;;;9.50;6.10;;;;;;;4.29;77.31;99428.06;107477;1257;95863;-51
2023/01/15 04:26:33;;;;;;;9.80;6.30;;;;;;;4.30;77.33;99429.02;107475;1257;80251;-50
2023/01/15 04:29:12;;;;;;;12.70;7.10;;;;;;;4.30;77.20;99406.23;107501;1256;80741;-51
2023/01/15 04:31:56;;;;;;;12.10;6.80;;;;;;;4.29;77.19;99401.14;107529;1257;96815;-51
2023/01/15 04:34:40;;;;;;;10.90;6.50;;;;;;;4.24;77.39;99403.96;107563;1254;89203;-53
2023/01/15 04:37:21;;;;;;;10.00;6.60;;;;;;;4.20;77.41;99401.81;107510;1257;95972;-55
2023/01/15 04:39:59;;;;;;;12.50;7.00;;;;;;;4.13;77.46;99397.54;107528;1253;80118;-55
2023/01/15 04:45:30;;;;;;;10.70;6.50;;;;;;;4.14;77.48;99392.59;107535;1257;98218;-54
2023/01/15 04:48:13;;;;;;;8.80;5.50;;;;;;;4.20;77.47;99382.91;107428;1258;88406;-53
2023/01/15 04:51:04;;;;;;;11.10;6.40;;;;;;;4.20;77.39;99372.26;107527;1256;94054;-51
2023/01/15 04:53:48;;;;;;;10.10;6.20;;;;;;;4.17;77.49;99373.90;107504;1254;79401;-50
2023/01/15 04:56:31;;;;;;;9.80;5.50;;;;;;;4.13;77.47;99376.66;107506;1254;83044;-53
2023/01/15 04:59:17;;;;;;;7.70;5.00;;;;;;;4.13;77.53;99373.38;107474;1255;98124;-53
2023/01/15 05:01:59;;;;;;;10.40;5.50;;;;;;;4.11;77.45;99369.69;107493;1255;86882;-50
2023/01/15 05:04:36;;;;;;;9.80;5.20;;;;;;;4.13;77.36;99363.33;107498;1255;93619;-52
2023/01/15 05:07:15;;;;;;;8.30;4.90;;;;;;;4.17;77.44;99364.50;107532;1253;77998;-51
2023/01/15 05:09:55;;;;;;;8.80;4.80;;;;;;;4.20;77.15;99365.27;107516;1257;82898;-53
2023/01/15 05:12:30;;;;;;;9.70;5.60;;;;;;;4.19;77.20;99357.49;107540;1254;97570;-54
2023/01/15 05:15:08;;;;;;;9.10;5.50;;;;;;;4.23;77.25;99362.91;107497;1254;88775;-54
2023/01/15 05:17:49;;;;;;;9.20;4.60;;;;;;;4.28;76.49;99349.80;107487;1255;95674;-54
2023/01/15 05:20:27;;;;;;;8.60;4.60;;;;;;;4.30;77.02;99350.72;107504;1254;80500;-53
2023/01/15 05:23:04;;;;;;;7.10;4.70;;;;;;;4.35;77.04;99348.26;107506;1257;81274;-53
2023/01/15 05:25:47;;;;;;;6.50;4.30;;;;;;;4.38;76.72;99342.77;107532;1254;98135;-51
2023/01/15 05:28:27;;;;;;;6.80;4.50;;;;;;;4.42;76.80;99350.24;107522;1257;87795;-52
2023/01/15 05:31:09;;;;;;;7.80;3.90;;;;;;;4.48;76.75;99345.42;107519;1255;95205;-50
2023/01/15 05:33:45;;;;;;;9.80;4.70;;;;;;;4.53;76.76;99348.20;107494;1256;77369;-51
2023/01/15 05:36:31;;;;;;;7.60;4.40;;;;;;;4.56;76.56;99342.71;107264;1257;393258;-54
2023/01/15 05:39:18;;;;;;;8.30;4.50;;;;;;;4.58;76.23;99343.17;107481;1254;99043;-54
2023/01/15 05:42:03;;;;;;;7.50;4.40;;;;;;;4.58;76.21;99340.72;107467;1258;87847;-55
2023/01/15 05:44:44;;;;;;;8.70;4.30;;;;;;;4.58;76.11;99347.48;107460;1257;95965;-55
2023/01/15 05:47:18;;;;;;;6.50;3.90;;;;;;;4.59;75.77;99339.34;107500;1254;79555;-54
2023/01/15 05:49:55;;;;;;;7.70;4.60;;;;;;;4.62;75.86;99339.98;107510;1254;82726;-54
2023/01/15 05:52:37;;;;;;;6.30;3.50;;;;;;;4.66;76.13;99339.33;107510;1257;98116;-54
2023/01/15 05:55:14;;;;;;;6.20;3.90;;;;;;;4.70;75.94;99329.61;107503;1257;89378;-51
2023/01/15 05:58:00;;;;;;;7.90;4.40;;;;;;;4.74;75.99;99324.17;107531;1254;93882;-52
2023/01/15 06:00:37;;;;;;;6.60;4.00;;;;;;;4.74;75.67;99324.91;107488;1252;80534;-55
2023/01/15 06:03:12;;;;;;;5.90;3.80;;;;;;;4.75;75.65;99322.66;107507;1254;82247;-54
2023/01/15 06:05:53;;;;;;;5.20;3.60;;;;;;;4.73;75.50;99319.83;107521;1256;98582;-52
2023/01/15 06:08:38;;;;;;;5.80;3.80;;;;;;;4.71;76.09;99321.71;107504;1255;86293;-51
2023/01/15 06:11:20;;;;;;;5.70;3.30;;;;;;;4.69;76.17;99316.55;107533;1257;93103;-56
2023/01/15 06:14:01;;;;;;;6.60;3.30;;;;;;;4.69;76.23;99314.90;107475;1257;81423;-51
2023/01/15 06:16:40;;;;;;;5.00;3.10;;;;;;;4.68;76.53;99314.31;107539;1257;83120;-53
2023/01/15 06:19:19;;;;;;;5.70;3.20;;;;;;;4.70;76.67;99301.46;107387;1255;98474;-52
2023/01/15 06:22:02;;;;;;;6.30;3.80;;;;;;;4.72;76.87;99297.02;107510;1254;86662;-55
2023/01/15 06:24:37;;;;;;;6.50;3.40;;;;;;;4.69;77.00;99284.24;107494;1257;93948;-54
2023/01/15 06:27:21;;;;;;;5.10;3.10;;;;;;;4.68;77.33;99280.81;107442;1253;81297;-54
2023/01/15 06:30:05;;;;;;;5.40;3.30;;;;;;;4.64;77.57;99282.38;107507;1254;83687;-51
2023/01/15 06:32:45;;;;;;;5.20;3.00;;;;;;;4.62;77.79;99284.80;107546;1254;98923;-51
2023/01/15 06:35:26;;;;;;;6.20;3.80;;;;;;;4.58;78.15;99284.36;107468;1256;88077;-51
2023/01/15 06:38:05;;;;;;;5.30;3.30;;;;;;;4.58;78.33;99290.78;107458;1257;95398;-52
2023/01/15 06:40:40;;;;;;;4.80;3.10;;;;;;;4.60;78.63;99298.77;107469;1254;79903;-54
2023/01/15 06:49:09;;;;;;;6.50;3.30;;;;;;;4.57;78.97;99283.08;107500;1257;89412;-54
2023/01/15 06:51:54;;;;;;;5.50;3.20;;;;;;;4.54;79.23;99271.20;107483;1254;94072;-52
2023/01/15 06:54:31;;;;;;;5.30;3.10;;;;;;;4.53;79.37;99276.66;107485;1253;81171;-53
2023/01/15 06:57:17;;;;;;;5.10;2.90;;;;;;;4.54;79.86;99276.13;107619;1257;82154;-54
2023/01/15 07:00:00;;;;;;;4.60;2.90;;;;;;;4.53;79.79;99268.23;107559;1254;99276;-53
2023/01/15 07:02:45;;;;;;;5.70;4.50;;;;;;;4.55;80.06;99266.74;107563;1254;89036;-54
2023/01/15 07:05:31;;;;;;;4.60;2.80;;;;;;;4.54;80.50;99260.55;107560;1254;94854;-51
2023/01/15 07:08:08;;;;;;;6.30;3.00;;;;;;;4.54;80.90;99259.29;107533;1252;79301;-51
2023/01/15 07:10:50;;;;;;;5.10;3.00;;;;;;;4.54;81.12;99257.21;107534;1254;80691;-53
2023/01/15 07:13:38;;;;;;;5.60;3.40;;;;;;;4.57;81.16;99254.82;107520;1254;98297;-52
2023/01/15 07:16:27;;;;;;;4.10;2.60;;;;;;;4.62;81.10;99256.02;107531;1254;88566;-54
2023/01/15 07:19:09;;;;;;;4.80;2.80;;;;;;;4.67;81.25;99267.03;107468;1257;96485;-54
2023/01/15 07:21:48;;;;;;;5.70;3.00;;;;;;;4.67;81.38;99259.02;107387;1254;78417;-53
2023/01/15 07:24:27;;;;;;;5.10;2.70;;;;;;;4.67;81.34;99261.84;107483;1253;82567;-54
2023/01/15 07:27:06;;;;;;;4.70;2.90;;;;;;;4.65;81.66;99248.45;107502;1254;98752;-52
2023/01/15 07:29:50;;;;;;;3.20;2.50;;;;;;;4.64;81.33;99246.58;107488;1257;87917;-51
2023/01/15 07:32:39;;;;;;;5.30;2.90;;;;;;;4.61;81.75;99241.42;107415;1254;95961;-51
2023/01/15 07:35:20;;;;;;;4.50;2.80;;;;;;;4.60;81.76;99240.38;107500;1254;79239;-53
2023/01/15 07:38:01;;;;;;;5.40;2.80;;;;;;;4.62;81.62;99238.19;107481;1254;82847;-52
2023/01/15 07:40:43;;;;;;;4.30;2.60;;;;;;;4.67;81.81;99233.95;107494;1254;97511;-55
2023/01/15 07:49:48;;;;;;;5.00;2.60;;;;;;;4.72;81.87;99228.11;107327;1258;79644;-54
2023/01/15 07:52:31;;;;;;;5.10;2.80;;;;;;;4.77;82.01;99230.38;107530;1257;81964;-55
2023/01/15 07:55:11;;;;;;;5.20;3.10;;;;;;;4.81;81.78;99229.08;107575;1254;98265;-54
2023/01/15 07:57:46;;;;;;;4.60;2.80;;;;;;;4.82;81.86;99228.19;107475;1254;88839;-54
2023/01/15 08:00:25;;;;;;;6.20;3.20;;;;;;;4.83;81.87;99224.75;107493;1254;94730;-52
2023/01/15 08:03:05;;;;;;;4.70;3.10;;;;;;;4.84;81.87;99225.59;107518;1254;79117;-51
2023/01/15 08:05:50;;;;;;;4.50;2.70;;;;;;;4.87;82.06;99229.77;107516;1253;83363;-54
2023/01/15 08:08:32;;;;;;;5.20;2.70;;;;;;;4.91;82.27;99224.18;107470;1255;99081;-53
2023/01/15 08:17:11;;;;;;;5.50;2.70;;;;;;;5.03;82.27;99220.16;107490;1254;81388;-55
2023/01/15 08:19:49;;;;;;;6.60;3.00;;;;;;;5.05;82.43;99216.98;107520;1253;82279;-51
2023/01/15 08:22:31;;;;;;;5.10;2.80;;;;;;;5.12;82.61;99214.79;107465;1254;97931;-52
2023/01/15 08:25:12;;;;;;;4.90;3.00;;;;;;;5.16;82.69;99215.88;107491;1252;88333;-54
2023/01/15 08:27:59;;;;;;;6.60;2.90;;;;;;;5.20;82.78;99216.09;107472;1257;93829;-53
2023/01/15 08:30:41;;;;;;;4.60;2.90;;;;;;;5.17;83.40;99209.39;107529;1253;82375;-52
2023/01/15 08:33:23;;;;;;;5.60;2.80;;;;;;;5.20;83.39;99210.88;107502;1252;81696;-51
2023/01/15 08:36:03;;;;;;;8.20;3.10;;;;;;;5.19;83.79;99208.38;107555;1256;99860;-56
2023/01/15 08:38:43;;;;;;;6.50;3.50;;;;;;;5.21;83.68;99205.98;107546;1252;88140;-56
2023/01/15 08:41:22;;;;;;;4.40;2.80;;;;;;;5.25;83.77;99205.46;107564;1252;95886;-54
2023/01/15 08:44:05;;;;;;;5.50;2.80;;;;;;;5.27;83.69;99201.01;107532;1253;82320;-54
2023/01/15 08:46:45;;;;;;;5.70;3.00;;;;;;;5.30;83.85;99206.64;107501;1257;83236;-51
2023/01/15 08:49:31;;;;;;;5.20;2.70;;;;;;;5.32;83.83;99201.77;107442;1254;98817;-51
2023/01/15 08:52:13;;;;;;;5.90;2.90;;;;;;;5.34;84.02;99200.95;107495;1253;89350;-52
2023/01/15 08:54:54;;;;;;;4.80;2.80;;;;;;;5.37;84.01;99201.09;107481;1254;95051;-51
2023/01/15 08:57:37;;;;;;;5.70;2.70;;;;;;;5.40;83.95;99204.89;107456;1254;81094;-52
2023/01/15 09:00:15;;;;;;;6.10;3.50;;;;;;;5.43;84.19;99198.70;107502;1254;81956;-55
2023/01/15 09:02:57;;;;;;;6.20;3.10;;;;;;;5.44;84.28;99206.64;107449;1252;97351;-54
2023/01/15 09:05:43;;;;;;;5.00;2.80;;;;;;;5.48;84.12;99205.97;107420;1254;88807;-52
2023/01/15 09:08:32;;;;;;;6.10;2.90;;;;;;;5.50;84.33;99203.21;107423;1253;94683;-52
2023/01/15 09:11:20;;;;;;;6.10;3.10;;;;;;;5.54;84.03;99200.59;107444;1254;80576;-53
2023/01/15 09:14:03;;;;;;;5.10;3.00;;;;;;;5.56;84.43;99197.31;107464;1252;83152;-53
2023/01/15 09:16:42;;;;;;;4.80;3.00;;;;;;;5.56;84.38;99201.60;107500;1255;97452;-54
2023/01/15 09:19:23;;;;;;;5.10;2.90;;;;;;;5.56;84.45;99195.70;107480;1252;86914;-55
2023/01/15 09:22:07;;;;;;;7.30;3.20;;;;;;;5.55;84.65;99191.53;107454;1252;95167;-53
2023/01/15 09:24:49;;;;;;;5.20;3.00;;;;;;;5.54;84.85;99195.39;107469;1252;81847;-53
2023/01/15 09:27:25;;;;;;;4.30;2.90;;;;;;;5.54;84.92;99190.95;107500;1252;82100;-53
2023/01/15 09:30:03;;;;;;;7.40;3.20;;;;;;;5.51;84.84;99187.85;107473;1253;97530;-54
2023/01/15 09:32:42;;;;;;;10.50;3.10;;;;;;;5.53;84.93;99189.61;107498;1253;86785;-55
2023/01/15 09:35:21;;;;;;;6.10;3.30;;;;;;;5.53;85.12;99186.69;107523;1254;94385;-55
2023/01/15 09:38:07;;;;;;;6.10;3.30;;;;;;;5.56;85.01;99179.63;107586;1254;80841;-55
2023/01/15 09:40:55;;;;;;;6.30;3.10;;;;;;;5.59;85.09;99185.85;107500;1252;81723;-54
2023/01/15 09:43:54;;;;;;;4.80;2.90;;;;;;;5.59;85.25;99182.27;107495;1254;99485;-55
2023/01/15 09:46:37;;;;;;;6.10;3.30;;;;;;;5.58;85.34;99183.08;107493;1252;89473;-56
2023/01/15 09:49:27;;;;;;;8.10;4.50;;;;;;;5.59;85.40;99188.49;107501;1253;95309;-57
2023/01/15 09:52:23;;;;;;;6.10;3.40;;;;;;;5.59;85.74;99183.42;107471;1252;82053;-56
2023/01/15 09:55:17;;;;;;;19.50;10.40;;;;;;;5.60;85.66;99183.48;107384;1254;82053;-53
2023/01/15 09:58:01;;;;;;;14.60;7.40;;;;;;;5.63;85.74;99181.90;107338;1254;98000;-54
2023/01/15 10:00:42;;;;;;;8.20;5.10;;;;;;;5.61;85.59;99174.83;107413;1254;87902;-54
2023/01/15 10:03:36;;;;;;;13.40;8.10;;;;;;;5.58;85.88;99173.27;107363;1254;95020;-53
2023/01/15 10:06:27;;;;;;;9.10;4.50;;;;;;;5.57;86.14;99167.11;107317;1254;81078;-56
2023/01/15 10:09:15;;;;;;;9.20;4.80;;;;;;;5.58;86.07;99162.95;107432;1254;80207;-57
2023/01/15 10:15:23;;;;;;;8.20;4.90;;;;;;;5.68;86.15;99158.55;107510;1254;88192;-55
2023/01/15 10:18:07;;;;;;;7.00;3.70;;;;;;;5.70;86.31;99156.19;107476;1254;94686;-55
2023/01/15 10:21:09;;;;;;;7.40;3.80;;;;;;;5.74;86.13;99149.61;107378;1254;82304;-54
2023/01/15 10:24:01;;;;;;;6.60;3.80;;;;;;;5.81;86.23;99155.48;107431;1254;80831;-51
2023/01/15 10:26:43;;;;;;;6.90;4.30;;;;;;;5.81;86.25;99149.71;107366;1254;97690;-51
2023/01/15 10:29:37;;;;;;;7.00;3.60;;;;;;;5.84;86.42;99148.95;107438;1254;87243;-52
2023/01/15 10:32:39;;;;;;;6.00;3.70;;;;;;;5.86;86.43;99140.09;107277;1258;95686;-52
2023/01/15 10:35:45;;;;;;;6.60;4.00;;;;;;;5.87;86.43;99135.02;107378;1254;81710;-52
2023/01/15 10:38:26;;;;;;;;;;;;;;;5.89;86.52;99131.46;107380;1254;82595;-59
2023/01/15 10:41:38;;;;;;;7.90;4.80;;;;;;;5.91;86.43;99131.45;107374;1254;96655;-54
2023/01/15 10:44:26;;;;;;;7.50;4.20;;;;;;;5.92;86.43;99125.25;107388;1254;88525;-54
2023/01/15 10:47:11;;;;;;;8.60;4.60;;;;;;;5.90;86.38;99120.37;107337;1254;95838;-53
2023/01/15 10:49:51;;;;;;;8.00;5.10;;;;;;;5.93;86.49;99118.75;107364;1254;80124;-54
2023/01/15 10:52:37;;;;;;;8.10;4.90;;;;;;;5.92;86.34;99119.16;107352;1254;81647;-55
2023/01/15 10:55:23;;;;;;;6.20;3.80;;;;;;;5.92;86.50;99115.80;107390;1254;99142;-55
2023/01/15 10:58:09;;;;;;;8.40;5.40;;;;;;;5.91;86.58;99113.73;107436;1254;88795;-54
2023/01/15 11:00:57;;;;;;;20.20;10.30;;;;;;;5.91;86.59;99113.86;107462;1258;95191;-52
2023/01/15 11:03:40;;;;;;;11.20;6.50;;;;;;;5.97;86.54;99113.59;107378;1258;81429;-52
2023/01/15 11:06:24;;;;;;;24.60;14.40;;;;;;;5.97;86.60;99114.83;107473;1254;82403;-53
2023/01/15 11:09:00;;;;;;;11.40;6.40;;;;;;;5.99;86.72;99113.54;107448;1254;98945;-53
2023/01/15 11:20:50;;;;;;;10.30;6.70;;;;;;;6.10;86.65;99097.67;107366;1254;82127;-54
2023/01/15 11:23:35;;;;;;;8.00;4.40;;;;;;;6.08;86.83;99095.59;107399;1256;99205;-53
2023/01/15 11:26:30;;;;;;;21.10;12.10;;;;;;;6.10;86.67;99098.55;107370;1254;88877;-55
2023/01/15 11:29:15;;;;;;;;;;;;;;;6.09;86.51;99095.77;107423;1254;93019;-56
2023/01/15 11:31:51;;;;;;;13.20;7.30;;;;;;;6.10;86.46;99095.00;107424;1258;80099;-56
2023/01/15 11:34:43;;;;;;;8.10;4.60;;;;;;;6.12;86.55;99093.85;107375;1254;83269;-55
2023/01/15 11:37:24;;;;;;;21.60;12.40;;;;;;;6.15;86.42;99088.44;107443;1254;97481;-53
2023/01/15 11:40:18;;;;;;;14.90;8.00;;;;;;;6.18;86.45;99087.11;107392;1254;88045;-53
2023/01/15 11:51:48;;;;;;;6.70;3.10;;;;;;;6.21;86.25;99077.59;107437;1254;99413;-52
2023/01/15 11:54:27;;;;;;;6.50;3.90;;;;;;;6.23;86.23;99074.90;107395;1254;89787;-53
2023/01/15 11:57:05;;;;;;;5.10;3.30;;;;;;;6.24;86.23;99073.63;107424;1254;93798;-52
2023/01/15 11:59:53;;;;;;;6.60;3.60;;;;;;;6.25;86.14;99073.47;107289;1255;82892;-53
2023/01/15 12:02:39;;;;;;;6.50;3.50;;;;;;;6.26;86.06;99069.80;107410;1254;80981;-53
2023/01/15 12:05:29;;;;;;;4.70;3.10;;;;;;;6.28;86.11;99069.08;107379;1254;97995;-55
2023/01/15 12:08:34;;;;;;;6.40;3.40;;;;;;;6.30;86.04;99067.28;107380;1254;88204;-55
2023/01/15 12:11:39;;;;;;;5.70;3.50;;;;;;;6.29;86.01;99067.31;107363;1258;95935;-55
2023/01/15 12:14:46;;;;;;;5.50;3.50;;;;;;;6.27;85.80;99067.51;107373;1254;81312;-55
2023/01/15 12:17:49;;;;;;;7.50;4.20;;;;;;;6.28;85.63;99067.27;107368;1258;83108;-51
2023/01/15 12:20:30;;;;;;;5.80;3.40;;;;;;;6.30;85.51;99067.65;107372;1254;98402;-55
2023/01/15 12:23:53;;;;;;;6.00;3.30;;;;;;;6.28;85.37;99064.20;107406;1254;86959;-53
2023/01/15 12:26:36;;;;;;;6.00;3.70;;;;;;;6.29;84.93;99061.69;107400;1254;92086;-52
2023/01/15 12:29:23;;;;;;;6.50;3.70;;;;;;;6.29;85.27;99059.80;107384;1258;81169;-52
2023/01/15 12:32:07;;;;;;;6.10;3.90;;;;;;;6.32;85.08;99062.79;107436;1254;82895;-52
2023/01/15 12:34:48;;;;;;;;;;;;;;;6.35;85.21;99067.94;107326;1254;99011;-54
2023/01/15 12:37:29;;;;;;;7.20;4.40;;;;;;;6.37;85.06;99066.80;107370;1254;89209;-54
2023/01/15 12:40:25;;;;;;;7.00;4.00;;;;;;;6.39;84.80;99065.65;107418;1254;95182;-52
2023/01/15 12:46:18;;;;;;;6.00;3.70;;;;;;;6.48;84.21;99064.61;107338;1254;80155;-51
2023/01/15 12:49:17;;;;;;;6.50;3.50;;;;;;;6.47;84.37;99066.33;107376;1254;98159;-51
2023/01/15 12:52:02;;;;;;;7.70;3.70;;;;;;;6.46;84.29;99067.97;107401;1254;88791;-55
2023/01/15 12:54:46;;;;;;;7.70;3.80;;;;;;;6.45;84.26;99071.33;107381;1254;95251;-51
2023/01/15 12:57:39;;;;;;;6.80;3.70;;;;;;;6.44;84.15;99071.63;107367;1254;80507;-52
2023/01/15 13:00:27;;;;;;;7.20;4.20;;;;;;;6.44;83.92;99070.86;107335;1254;83716;-53
2023/01/15 13:03:21;;;;;;;9.10;4.80;;;;;;;6.46;83.84;99071.45;107265;1254;98551;-54
2023/01/15 13:06:08;;;;;;;21.70;11.30;;;;;;;6.46;83.85;99071.32;107346;1254;87478;-53
2023/01/15 13:08:59;;;;;;;13.80;7.50;;;;;;;6.51;83.43;99074.68;107380;1254;94676;-54
2023/01/15 13:11:39;;;;;;;13.30;7.80;;;;;;;6.54;83.51;99064.56;107381;1254;78492;-51
2023/01/15 13:14:21;;;;;;;12.00;6.10;;;;;;;6.58;83.00;99067.55;107406;1254;82115;-51
2023/01/15 13:17:10;;;;;;;16.80;9.20;;;;;;;6.61;82.48;99066.47;107412;1254;97753;-52
2023/01/15 13:20:32;;;;;;;13.10;7.50;;;;;;;6.63;82.12;99069.61;107414;1254;88701;-52
2023/01/15 13:23:31;;;;;;;13.70;7.10;;;;;;;6.62;82.28;99070.73;107434;1254;94117;-51
2023/01/15 13:26:27;;;;;;;18.10;9.60;;;;;;;6.61;82.47;99070.92;107519;1254;81396;-52
2023/01/15 13:29:20;;;;;;;12.40;7.20;;;;;;;6.63;82.30;99072.67;107443;1254;81390;-52
2023/01/15 13:32:11;;;;;;;8.60;4.90;;;;;;;6.65;81.98;99069.51;107338;1258;98247;-51
2023/01/15 13:34:56;;;;;;;10.70;5.80;;;;;;;6.69;81.58;99077.95;107443;1254;87319;-53
2023/01/15 13:37:43;;;;;;;11.50;5.80;;;;;;;6.73;81.96;99078.23;107132;1254;95977;-54
2023/01/15 13:40:35;;;;;;;9.40;4.80;;;;;;;6.73;81.71;99078.72;107355;1256;80350;-53
2023/01/15 13:43:23;;;;;;;18.50;9.10;;;;;;;6.75;81.39;99075.14;107426;1254;80975;-54